Time;durP1;ratioP1;P1;durP2;ratioP2;P2;SDS_P1;SDS_P2;PMS_P1;PMS_P2;Temp;Humidity;BMP_temperature;BMP_pressure;BME280_temperature;BME280_humidity;BME280_pressure;Samples;Min_cycle;Max_cycle;Signal;HPM_P1;HPM_P2
2021/06/13 00:00:50;;;;;;;18.08;6.60;;;;;;;;;;1422394;41;20482;-81
2021/06/13 00:01:51;;;;;;;15.68;6.72;;;;;;;;;;1422177;41;20445;-82
2021/06/13 00:02:53;;;;;;;16.38;6.90;;;;;;;;;;1422319;41;20526;-82
2021/06/13 00:03:55;;;;;;;15.23;6.80;;;;;;;;;;1426115;41;20472;-82
2021/06/13 00:04:57;;;;;;;16.67;6.45;;;;;;;;;;1430274;41;20438;-82
2021/06/13 00:05:59;;;;;;;14.90;6.40;;;;;;;;;;1427197;41;20481;-81
2021/06/13 00:07:00;;;;;;;18.23;6.55;;;;;;;;;;1426007;41;20448;-82
2021/06/13 00:08:02;;;;;;;15.45;7.10;;;;;;;;;;1422055;41;20515;-81
2021/06/13 00:09:05;;;;;;;14.30;6.25;;;;;;;;;;1426068;41;20436;-82
2021/06/13 00:10:08;;;;;;;14.55;6.22;;;;;;;;;;1426610;41;20420;-82
2021/06/13 00:11:10;;;;;;;17.65;7.65;;;;;;;;;;1422062;41;20437;-82
2021/06/13 00:12:13;;;;;;;18.80;6.90;;;;;;;;;;1422466;41;20516;-82
2021/06/13 00:13:14;;;;;;;13.48;6.40;;;;;;;;;;1422605;41;20429;-82
2021/06/13 00:14:18;;;;;;;15.88;6.47;;;;;;;;;;1423088;41;20479;-81
2021/06/13 00:15:23;;;;;;;14.38;6.90;;;;;;;;;;1430186;41;20530;-82
2021/06/13 00:16:25;;;;;;;16.15;7.65;;;;;;;;;;1431927;41;21959;-82
2021/06/13 00:17:26;;;;;;;16.73;6.70;;;;;;;;;;1421968;41;21329;-82
2021/06/13 00:18:29;;;;;;;16.70;6.85;;;;;;;;;;1417984;41;20447;-82
2021/06/13 00:19:30;;;;;;;19.63;7.22;;;;;;;;;;1422765;41;20600;-82
2021/06/13 00:20:32;;;;;;;15.07;6.57;;;;;;;;;;1430742;41;20568;-82
2021/06/13 00:21:34;;;;;;;11.07;5.75;;;;;;;;;;1418886;41;20454;-82
2021/06/13 00:22:36;;;;;;;17.85;6.75;;;;;;;;;;1418155;41;20795;-82
2021/06/13 00:23:38;;;;;;;17.60;6.97;;;;;;;;;;1425949;41;20905;-82
2021/06/13 00:24:52;;;;;;;14.13;6.90;;;;;;;;;;1422635;41;20437;-81
2021/06/13 00:25:53;;;;;;;13.73;6.10;;;;;;;;;;1420115;41;20939;-82
2021/06/13 00:26:55;;;;;;;12.40;5.95;;;;;;;;;;1426345;41;20445;-82
2021/06/13 00:27:56;;;;;;;12.90;5.97;;;;;;;;;;1429759;41;20586;-82
2021/06/13 00:28:59;;;;;;;14.35;6.30;;;;;;;;;;1425555;41;20436;-82
2021/06/13 00:30:00;;;;;;;12.23;5.68;;;;;;;;;;1422323;41;20489;-82
2021/06/13 00:31:03;;;;;;;16.45;5.60;;;;;;;;;;1428134;41;20442;-82
2021/06/13 00:32:05;;;;;;;15.73;6.55;;;;;;;;;;1422207;41;20853;-81
2021/06/13 00:33:07;;;;;;;16.40;6.72;;;;;;;;;;1418822;41;20447;-82
2021/06/13 00:34:09;;;;;;;19.83;7.05;;;;;;;;;;1426142;41;20481;-83
2021/06/13 00:35:12;;;;;;;19.42;6.53;;;;;;;;;;1430614;41;20453;-82
2021/06/13 00:36:13;;;;;;;14.93;6.57;;;;;;;;;;1432566;41;20483;-81
2021/06/13 00:37:15;;;;;;;14.75;5.90;;;;;;;;;;1429124;41;20859;-82
2021/06/13 00:38:17;;;;;;;15.85;6.07;;;;;;;;;;1427645;41;20497;-82
2021/06/13 00:39:19;;;;;;;15.50;6.38;;;;;;;;;;1434568;41;20438;-82
2021/06/13 00:40:23;;;;;;;18.75;6.72;;;;;;;;;;1430415;41;20545;-81
2021/06/13 00:41:25;;;;;;;13.50;5.75;;;;;;;;;;1431467;41;20425;-82
2021/06/13 00:42:26;;;;;;;13.95;5.82;;;;;;;;;;1430302;41;20472;-84
2021/06/13 00:43:28;;;;;;;15.32;5.85;;;;;;;;;;1434339;41;20507;-84
2021/06/13 00:44:30;;;;;;;12.75;5.68;;;;;;;;;;1434738;41;20442;-84
2021/06/13 00:45:31;;;;;;;14.80;4.93;;;;;;;;;;1425631;41;20488;-84
2021/06/13 00:46:34;;;;;;;14.80;6.47;;;;;;;;;;1428483;41;20476;-84
2021/06/13 00:47:37;;;;;;;14.70;5.55;;;;;;;;;;1427037;41;20433;-85
2021/06/13 00:48:39;;;;;;;14.00;5.65;;;;;;;;;;1426329;41;20454;-85
2021/06/13 00:49:41;;;;;;;13.60;5.35;;;;;;;;;;1426125;41;20764;-86
2021/06/13 00:50:49;;;;;;;12.35;5.47;;;;;;;;;;1426412;41;20436;-85
2021/06/13 00:51:51;;;;;;;13.80;5.30;;;;;;;;;;1430456;41;20680;-84
2021/06/13 00:52:53;;;;;;;12.63;5.43;;;;;;;;;;1430208;41;20418;-84
2021/06/13 00:53:55;;;;;;;19.25;6.10;;;;;;;;;;1430817;41;20465;-84
2021/06/13 00:54:57;;;;;;;15.57;6.43;;;;;;;;;;1426529;41;20723;-85
2021/06/13 00:55:59;;;;;;;14.82;5.97;;;;;;;;;;1422408;41;20841;-85
2021/06/13 00:57:01;;;;;;;12.68;5.03;;;;;;;;;;1419502;41;20497;-85
2021/06/13 00:58:05;;;;;;;15.10;5.82;;;;;;;;;;1431129;41;20989;-85
2021/06/13 00:59:07;;;;;;;14.38;6.47;;;;;;;;;;1427105;41;20828;-86
2021/06/13 01:00:09;;;;;;;14.38;6.32;;;;;;;;;;1427629;41;20476;-84
2021/06/13 01:01:11;;;;;;;12.93;5.70;;;;;;;;;;1419850;41;20443;-87
2021/06/13 01:02:13;;;;;;;12.73;5.65;;;;;;;;;;1423521;41;20437;-85
2021/06/13 01:03:15;;;;;;;17.90;6.57;;;;;;;;;;1422894;41;20450;-85
2021/06/13 01:04:16;;;;;;;13.77;6.10;;;;;;;;;;1422980;41;20442;-85
2021/06/13 01:05:19;;;;;;;18.55;6.88;;;;;;;;;;1422859;41;22950;-84
2021/06/13 01:06:51;;;;;;;15.00;6.20;;;;;;;;;;1416119;41;20437;-85
2021/06/13 01:08:18;;;;;;;10.95;6.28;;;;;;;;;;1431357;41;20446;-84
2021/06/13 01:09:24;;;;;;;18.02;6.28;;;;;;;;;;1438274;41;20429;-83
2021/06/13 01:10:56;;;;;;;15.57;6.32;;;;;;;;;;1435604;41;20411;-84
2021/06/13 01:12:04;;;;;;;17.70;5.97;;;;;;;;;;1427877;41;20436;-84
2021/06/13 01:13:21;;;;;;;15.10;6.53;;;;;;;;;;1429774;41;20405;-84
2021/06/13 01:14:31;;;;;;;10.38;6.05;;;;;;;;;;1430686;41;20477;-84
2021/06/13 01:15:40;;;;;;;18.88;6.75;;;;;;;;;;1433212;41;20424;-84
2021/06/13 01:16:46;;;;;;;16.98;6.07;;;;;;;;;;1432038;41;20423;-84
2021/06/13 01:18:06;;;;;;;14.00;6.53;;;;;;;;;;1435650;41;21018;-84
2021/06/13 01:19:21;;;;;;;17.23;6.60;;;;;;;;;;1433360;41;20418;-84
2021/06/13 01:20:29;;;;;;;18.10;7.13;;;;;;;;;;1430718;41;20463;-83
2021/06/13 01:21:48;;;;;;;17.45;6.60;;;;;;;;;;1430564;41;20483;-84
2021/06/13 01:23:13;;;;;;;12.80;6.22;;;;;;;;;;1427664;41;21242;-83
2021/06/13 01:24:26;;;;;;;19.55;6.65;;;;;;;;;;1431181;41;20426;-84
2021/06/13 01:25:38;;;;;;;19.42;7.20;;;;;;;;;;1428067;41;20417;-83
2021/06/13 01:26:58;;;;;;;13.30;6.90;;;;;;;;;;1431123;41;20417;-84
2021/06/13 01:27:59;;;;;;;16.10;6.75;;;;;;;;;;1433852;41;20437;-83
2021/06/13 01:29:04;;;;;;;14.55;6.88;;;;;;;;;;1428910;41;20427;-83
2021/06/13 01:30:07;;;;;;;15.32;6.35;;;;;;;;;;1427021;41;21090;-83
2021/06/13 01:31:10;;;;;;;18.05;6.80;;;;;;;;;;1426880;41;20866;-83
2021/06/13 01:32:21;;;;;;;19.42;6.72;;;;;;;;;;1426884;41;20443;-83
2021/06/13 01:33:23;;;;;;;12.13;6.20;;;;;;;;;;1424020;41;20441;-84
2021/06/13 01:34:31;;;;;;;14.70;6.15;;;;;;;;;;1423929;41;20434;-83
2021/06/13 01:35:34;;;;;;;12.93;6.35;;;;;;;;;;1428271;41;20672;-84
2021/06/13 01:36:37;;;;;;;14.25;6.95;;;;;;;;;;1426605;41;20499;-83
2021/06/13 01:37:42;;;;;;;15.15;6.10;;;;;;;;;;1422741;41;20422;-83
2021/06/13 01:38:47;;;;;;;14.43;6.43;;;;;;;;;;1426491;41;20460;-83
2021/06/13 01:39:52;;;;;;;13.68;5.97;;;;;;;;;;1430805;41;20838;-83
2021/06/13 01:40:55;;;;;;;14.73;6.28;;;;;;;;;;1430123;41;20514;-83
2021/06/13 01:42:00;;;;;;;14.77;6.15;;;;;;;;;;1426561;41;20550;-83
2021/06/13 01:43:05;;;;;;;12.95;5.45;;;;;;;;;;1422766;41;20445;-84
2021/06/13 01:44:07;;;;;;;22.30;6.72;;;;;;;;;;1426780;41;20432;-84
2021/06/13 01:45:12;;;;;;;16.90;6.53;;;;;;;;;;1430842;41;20434;-83
2021/06/13 01:46:18;;;;;;;13.85;5.93;;;;;;;;;;1422505;41;20425;-84
2021/06/13 01:47:21;;;;;;;17.75;6.78;;;;;;;;;;1422960;41;20437;-85
2021/06/13 01:48:24;;;;;;;15.55;7.20;;;;;;;;;;1426429;41;20809;-85
2021/06/13 01:49:27;;;;;;;13.82;6.55;;;;;;;;;;1422365;41;20453;-85
2021/06/13 01:50:30;;;;;;;14.85;6.72;;;;;;;;;;1423179;41;20438;-85
2021/06/13 01:51:32;;;;;;;13.40;6.57;;;;;;;;;;1426749;41;20716;-85
2021/06/13 01:52:35;;;;;;;15.63;7.22;;;;;;;;;;1425790;41;20463;-85
2021/06/13 01:53:41;;;;;;;13.05;6.32;;;;;;;;;;1426341;41;20448;-85
2021/06/13 01:54:44;;;;;;;15.00;6.63;;;;;;;;;;1429065;41;20471;-84
2021/06/13 01:55:48;;;;;;;18.75;7.45;;;;;;;;;;1426309;41;20479;-85
2021/06/13 01:56:52;;;;;;;15.98;6.60;;;;;;;;;;1419030;41;20436;-85
2021/06/13 01:57:55;;;;;;;19.20;6.85;;;;;;;;;;1422998;41;20515;-85
2021/06/13 01:58:58;;;;;;;16.65;7.57;;;;;;;;;;1426039;41;20481;-85
2021/06/13 02:00:03;;;;;;;14.23;7.38;;;;;;;;;;1422957;41;20473;-85
2021/06/13 02:01:07;;;;;;;16.20;8.15;;;;;;;;;;1421099;41;20472;-85
2021/06/13 02:02:13;;;;;;;18.90;7.25;;;;;;;;;;1426957;41;20444;-85
2021/06/13 02:03:16;;;;;;;19.85;7.95;;;;;;;;;;1430433;41;20418;-85
2021/06/13 02:04:18;;;;;;;15.10;7.50;;;;;;;;;;1430524;41;20943;-85
2021/06/13 02:05:23;;;;;;;14.70;7.32;;;;;;;;;;1434216;41;20471;-85
2021/06/13 02:06:29;;;;;;;15.52;6.97;;;;;;;;;;1433573;41;20417;-85
2021/06/13 02:07:35;;;;;;;14.40;7.15;;;;;;;;;;1433565;41;20676;-84
2021/06/13 02:08:38;;;;;;;13.32;6.55;;;;;;;;;;1429878;41;20419;-83
2021/06/13 02:09:43;;;;;;;16.17;7.32;;;;;;;;;;1428344;41;20501;-85
2021/06/13 02:10:49;;;;;;;16.07;7.50;;;;;;;;;;1432635;41;20472;-84
2021/06/13 02:11:55;;;;;;;15.23;7.63;;;;;;;;;;1429988;41;20462;-85
2021/06/13 02:12:58;;;;;;;10.77;6.75;;;;;;;;;;1431040;41;20414;-84
2021/06/13 02:14:00;;;;;;;12.50;6.82;;;;;;;;;;1426510;41;20429;-85
2021/06/13 02:15:03;;;;;;;14.05;7.07;;;;;;;;;;1426822;41;20435;-84
2021/06/13 02:16:08;;;;;;;13.93;7.60;;;;;;;;;;1426509;41;20433;-84
2021/06/13 02:17:10;;;;;;;14.63;7.25;;;;;;;;;;1430931;41;20446;-85
2021/06/13 02:18:13;;;;;;;15.90;7.63;;;;;;;;;;1431129;41;20457;-85
2021/06/13 02:19:19;;;;;;;15.50;7.30;;;;;;;;;;1432047;41;20518;-85
2021/06/13 02:20:24;;;;;;;15.02;7.38;;;;;;;;;;1435257;41;20712;-84
2021/06/13 02:21:27;;;;;;;13.93;7.18;;;;;;;;;;1430540;41;20722;-85
2021/06/13 02:22:29;;;;;;;13.90;6.97;;;;;;;;;;1429621;41;20460;-84
2021/06/13 02:23:33;;;;;;;18.73;7.75;;;;;;;;;;1425853;41;20458;-85
2021/06/13 02:24:37;;;;;;;15.80;7.18;;;;;;;;;;1424365;41;20815;-85
2021/06/13 02:25:39;;;;;;;14.38;7.68;;;;;;;;;;1426970;41;20428;-86
2021/06/13 02:26:43;;;;;;;18.27;7.75;;;;;;;;;;1433796;41;20449;-86
2021/06/13 02:27:45;;;;;;;12.88;7.78;;;;;;;;;;1435427;41;20440;-85
2021/06/13 02:28:51;;;;;;;13.50;6.82;;;;;;;;;;1430875;41;20492;-86
2021/06/13 02:29:53;;;;;;;13.05;7.90;;;;;;;;;;1431394;41;20472;-86
2021/06/13 02:30:56;;;;;;;13.50;7.70;;;;;;;;;;1435025;41;20684;-85
2021/06/13 02:31:59;;;;;;;20.10;8.73;;;;;;;;;;1426881;41;20424;-86
2021/06/13 02:33:02;;;;;;;17.27;7.47;;;;;;;;;;1420150;41;20474;-85
2021/06/13 02:34:06;;;;;;;13.27;6.95;;;;;;;;;;1427583;41;20876;-84
2021/06/13 02:35:10;;;;;;;13.10;6.88;;;;;;;;;;1429419;41;20561;-84
2021/06/13 02:36:12;;;;;;;17.42;7.32;;;;;;;;;;1415426;41;20564;-85
2021/06/13 02:37:15;;;;;;;14.70;7.60;;;;;;;;;;1422813;41;20516;-86
2021/06/13 02:38:17;;;;;;;14.70;7.63;;;;;;;;;;1424360;41;20427;-84
2021/06/13 02:39:20;;;;;;;12.90;7.95;;;;;;;;;;1426961;41;20487;-84
2021/06/13 02:40:23;;;;;;;12.60;6.95;;;;;;;;;;1430268;41;20435;-85
2021/06/13 02:41:24;;;;;;;16.48;8.00;;;;;;;;;;1426649;41;20428;-86
2021/06/13 02:42:26;;;;;;;14.82;6.97;;;;;;;;;;1426413;41;20431;-84
2021/06/13 02:43:28;;;;;;;12.43;7.35;;;;;;;;;;1429506;41;20438;-84
2021/06/13 02:44:30;;;;;;;14.05;7.72;;;;;;;;;;1430929;41;20488;-84
2021/06/13 02:45:31;;;;;;;13.00;6.82;;;;;;;;;;1435550;41;20835;-84
2021/06/13 02:46:33;;;;;;;14.13;7.47;;;;;;;;;;1431574;41;20438;-84
2021/06/13 02:47:37;;;;;;;13.38;7.47;;;;;;;;;;1430951;41;20430;-84
2021/06/13 02:48:39;;;;;;;12.20;7.47;;;;;;;;;;1431808;41;20447;-85
2021/06/13 02:49:41;;;;;;;16.92;7.80;;;;;;;;;;1431503;41;20444;-86
2021/06/13 02:50:43;;;;;;;12.75;7.05;;;;;;;;;;1435843;41;20425;-84
2021/06/13 02:52:01;;;;;;;17.27;7.35;;;;;;;;;;1427781;41;20425;-84
2021/06/13 02:53:21;;;;;;;12.48;6.65;;;;;;;;;;1421253;41;20814;-85
2021/06/13 02:54:25;;;;;;;14.13;7.85;;;;;;;;;;1429651;41;20481;-85
2021/06/13 02:55:40;;;;;;;15.10;7.38;;;;;;;;;;1435161;41;20926;-85
2021/06/13 02:56:57;;;;;;;13.45;7.50;;;;;;;;;;1432992;41;20472;-85
2021/06/13 02:58:11;;;;;;;16.05;8.13;;;;;;;;;;1430998;41;20441;-85
2021/06/13 02:59:33;;;;;;;17.02;8.35;;;;;;;;;;1428719;41;20901;-86
2021/06/13 03:00:35;;;;;;;19.25;7.88;;;;;;;;;;1434585;41;20497;-86
2021/06/13 03:01:43;;;;;;;21.10;8.23;;;;;;;;;;1434917;41;20413;-86
2021/06/13 03:02:48;;;;;;;18.08;8.05;;;;;;;;;;1431126;41;20423;-86
2021/06/13 03:03:51;;;;;;;19.67;8.80;;;;;;;;;;1431858;41;20502;-86
2021/06/13 03:04:53;;;;;;;15.65;7.80;;;;;;;;;;1427014;41;20464;-86
2021/06/13 03:05:56;;;;;;;19.35;8.48;;;;;;;;;;1427410;41;20802;-86
2021/06/13 03:06:59;;;;;;;20.27;8.13;;;;;;;;;;1425923;41;20804;-86
2021/06/13 03:08:01;;;;;;;20.35;8.30;;;;;;;;;;1419754;41;20428;-86
2021/06/13 03:09:04;;;;;;;18.05;8.50;;;;;;;;;;1426748;41;20422;-85
2021/06/13 03:10:08;;;;;;;17.60;7.70;;;;;;;;;;1430756;41;20447;-85
2021/06/13 03:11:11;;;;;;;15.80;7.95;;;;;;;;;;1434735;41;20442;-85
2021/06/13 03:12:14;;;;;;;18.83;8.25;;;;;;;;;;1431936;41;20440;-84
2021/06/13 03:13:17;;;;;;;17.48;8.30;;;;;;;;;;1432436;41;20450;-86
2021/06/13 03:14:20;;;;;;;17.92;8.10;;;;;;;;;;1424570;41;20481;-86
2021/06/13 03:15:25;;;;;;;15.57;7.85;;;;;;;;;;1427728;41;20418;-85
2021/06/13 03:16:27;;;;;;;17.00;7.65;;;;;;;;;;1435269;41;20689;-86
2021/06/13 03:17:30;;;;;;;19.23;7.55;;;;;;;;;;1426001;41;20422;-86
2021/06/13 03:18:34;;;;;;;23.27;8.07;;;;;;;;;;1423604;41;20551;-86
2021/06/13 03:19:40;;;;;;;17.27;8.02;;;;;;;;;;1427454;41;20412;-86
2021/06/13 03:20:42;;;;;;;14.85;6.90;;;;;;;;;;1426875;41;20931;-86
2021/06/13 03:21:47;;;;;;;13.32;7.13;;;;;;;;;;1426738;41;20435;-86
2021/06/13 03:22:49;;;;;;;18.90;7.35;;;;;;;;;;1426557;41;20441;-85
2021/06/13 03:23:52;;;;;;;16.75;7.20;;;;;;;;;;1430511;41;20442;-85
2021/06/13 03:24:58;;;;;;;15.00;7.65;;;;;;;;;;1423248;41;20846;-85
2021/06/13 03:26:02;;;;;;;13.27;6.90;;;;;;;;;;1423122;41;20414;-86
2021/06/13 03:27:05;;;;;;;18.00;7.07;;;;;;;;;;1430959;41;20454;-86
2021/06/13 03:28:08;;;;;;;17.13;7.53;;;;;;;;;;1434439;41;20472;-86
2021/06/13 03:29:10;;;;;;;16.75;6.72;;;;;;;;;;1430638;41;20458;-86
2021/06/13 03:30:13;;;;;;;14.23;7.60;;;;;;;;;;1423004;41;20873;-86
2021/06/13 03:31:15;;;;;;;14.18;6.95;;;;;;;;;;1423113;41;20445;-86
2021/06/13 03:32:17;;;;;;;14.13;7.10;;;;;;;;;;1415270;42;20824;-85
2021/06/13 03:33:21;;;;;;;11.60;6.82;;;;;;;;;;1419482;41;20462;-85
2021/06/13 03:34:23;;;;;;;12.13;6.32;;;;;;;;;;1430478;41;20474;-86
2021/06/13 03:35:25;;;;;;;11.55;6.35;;;;;;;;;;1422859;41;20556;-85
2021/06/13 03:36:30;;;;;;;12.52;6.45;;;;;;;;;;1422787;41;20871;-83
2021/06/13 03:37:32;;;;;;;13.02;7.05;;;;;;;;;;1425309;41;20421;-85
2021/06/13 03:38:35;;;;;;;14.07;6.45;;;;;;;;;;1426835;41;20440;-84
2021/06/13 03:39:39;;;;;;;14.70;6.68;;;;;;;;;;1430386;41;20423;-85
2021/06/13 03:40:41;;;;;;;14.77;6.10;;;;;;;;;;1426399;41;20447;-84
2021/06/13 03:41:45;;;;;;;11.93;6.35;;;;;;;;;;1422894;41;20860;-85
2021/06/13 03:42:48;;;;;;;12.85;6.57;;;;;;;;;;1430492;41;20419;-85
2021/06/13 03:43:52;;;;;;;14.45;6.75;;;;;;;;;;1426821;41;20451;-85
2021/06/13 03:44:54;;;;;;;13.38;5.88;;;;;;;;;;1424280;41;21135;-86
2021/06/13 03:45:56;;;;;;;11.38;6.05;;;;;;;;;;1424015;41;20595;-86
2021/06/13 03:46:58;;;;;;;13.50;6.18;;;;;;;;;;1424441;41;20437;-85
2021/06/13 03:48:01;;;;;;;14.48;6.80;;;;;;;;;;1429311;41;20502;-87
2021/06/13 03:49:05;;;;;;;17.55;6.47;;;;;;;;;;1428828;41;20700;-84
2021/06/13 03:50:08;;;;;;;13.25;6.38;;;;;;;;;;1424275;41;20429;-84
2021/06/13 03:51:11;;;;;;;15.05;6.78;;;;;;;;;;1429451;41;20432;-85
2021/06/13 03:52:13;;;;;;;16.40;7.03;;;;;;;;;;1436609;41;20712;-84
2021/06/13 03:53:15;;;;;;;17.75;7.25;;;;;;;;;;1428925;41;20562;-84
2021/06/13 03:54:18;;;;;;;12.70;6.30;;;;;;;;;;1426026;41;20491;-84
2021/06/13 03:55:20;;;;;;;13.73;6.93;;;;;;;;;;1428026;41;20928;-84
2021/06/13 03:56:28;;;;;;;14.98;6.10;;;;;;;;;;1432015;41;20418;-84
2021/06/13 03:57:32;;;;;;;11.57;6.15;;;;;;;;;;1423761;41;21122;-85
2021/06/13 03:58:34;;;;;;;15.63;6.63;;;;;;;;;;1423026;41;20422;-83
2021/06/13 03:59:36;;;;;;;12.98;6.10;;;;;;;;;;1428579;41;20424;-83
2021/06/13 04:00:41;;;;;;;10.95;5.78;;;;;;;;;;1435006;41;20423;-83
2021/06/13 04:01:52;;;;;;;14.00;5.82;;;;;;;;;;1431057;41;20415;-83
2021/06/13 04:02:54;;;;;;;11.50;6.10;;;;;;;;;;1427402;41;20487;-84
2021/06/13 04:03:57;;;;;;;12.82;5.90;;;;;;;;;;1431191;41;20435;-84
2021/06/13 04:05:00;;;;;;;14.63;6.55;;;;;;;;;;1434936;41;20429;-84
2021/06/13 04:06:03;;;;;;;12.07;5.68;;;;;;;;;;1430611;41;20454;-84
2021/06/13 04:07:10;;;;;;;12.98;5.65;;;;;;;;;;1430835;41;20440;-84
2021/06/13 04:08:13;;;;;;;15.77;7.00;;;;;;;;;;1429967;41;20551;-84
2021/06/13 04:09:17;;;;;;;10.73;6.50;;;;;;;;;;1430999;41;20793;-84
2021/06/13 04:10:21;;;;;;;14.73;6.28;;;;;;;;;;1430941;41;20442;-84
2021/06/13 04:11:24;;;;;;;12.20;6.28;;;;;;;;;;1426169;41;20495;-84
2021/06/13 04:12:26;;;;;;;14.15;6.70;;;;;;;;;;1426765;41;20423;-83
2021/06/13 04:13:29;;;;;;;11.75;5.72;;;;;;;;;;1426545;41;20443;-84
2021/06/13 04:14:31;;;;;;;13.50;6.50;;;;;;;;;;1424526;41;20452;-84
2021/06/13 04:15:33;;;;;;;10.57;5.95;;;;;;;;;;1425586;41;20462;-85
2021/06/13 04:16:34;;;;;;;12.13;6.07;;;;;;;;;;1429190;41;20428;-84
2021/06/13 04:17:37;;;;;;;14.50;6.07;;;;;;;;;;1425074;41;20419;-84
2021/06/13 04:18:42;;;;;;;14.05;6.25;;;;;;;;;;1427478;41;20538;-83
2021/06/13 04:19:47;;;;;;;10.93;5.88;;;;;;;;;;1430953;41;20445;-84
2021/06/13 04:20:49;;;;;;;11.20;5.15;;;;;;;;;;1430528;41;20504;-83
2021/06/13 04:21:51;;;;;;;10.93;5.68;;;;;;;;;;1430275;41;20619;-84
2021/06/13 04:22:53;;;;;;;12.43;5.38;;;;;;;;;;1430119;41;20810;-84
2021/06/13 04:23:59;;;;;;;11.07;4.72;;;;;;;;;;1430413;41;20434;-83
2021/06/13 04:25:01;;;;;;;10.15;4.95;;;;;;;;;;1430651;41;20678;-84
2021/06/13 04:26:03;;;;;;;11.63;5.72;;;;;;;;;;1430663;41;20438;-84
2021/06/13 04:27:09;;;;;;;11.75;5.63;;;;;;;;;;1422366;41;20421;-84
2021/06/13 04:28:15;;;;;;;10.30;5.22;;;;;;;;;;1422258;41;20457;-84
2021/06/13 04:29:18;;;;;;;8.68;4.45;;;;;;;;;;1422278;41;20784;-84
2021/06/13 04:30:19;;;;;;;10.48;5.55;;;;;;;;;;1423071;41;20515;-84
2021/06/13 04:31:21;;;;;;;11.48;4.85;;;;;;;;;;1426375;41;20443;-84
2021/06/13 04:32:25;;;;;;;8.38;4.18;;;;;;;;;;1422730;41;20482;-84
2021/06/13 04:33:29;;;;;;;12.23;5.23;;;;;;;;;;1426543;41;20500;-84
2021/06/13 04:34:31;;;;;;;8.02;4.45;;;;;;;;;;1426556;41;20433;-84
2021/06/13 04:35:32;;;;;;;16.52;5.20;;;;;;;;;;1422503;41;20430;-84
2021/06/13 04:36:34;;;;;;;10.35;4.32;;;;;;;;;;1415089;41;20457;-84
2021/06/13 04:37:37;;;;;;;13.55;4.90;;;;;;;;;;1418907;41;20472;-84
2021/06/13 04:38:39;;;;;;;9.43;4.32;;;;;;;;;;1426239;41;20478;-83
2021/06/13 04:39:41;;;;;;;8.85;4.63;;;;;;;;;;1424898;41;20823;-84
2021/06/13 04:40:42;;;;;;;8.20;4.57;;;;;;;;;;1422005;41;20430;-84
2021/06/13 04:41:44;;;;;;;10.77;5.03;;;;;;;;;;1422764;41;20430;-84
2021/06/13 04:42:45;;;;;;;12.95;4.85;;;;;;;;;;1434576;41;20530;-83
2021/06/13 04:43:47;;;;;;;13.30;5.30;;;;;;;;;;1428153;41;20436;-83
2021/06/13 04:44:49;;;;;;;13.90;4.28;;;;;;;;;;1419196;41;20467;-84
2021/06/13 04:45:51;;;;;;;9.35;4.10;;;;;;;;;;1418961;41;20436;-83
2021/06/13 04:46:52;;;;;;;10.80;4.70;;;;;;;;;;1426429;41;20431;-84
2021/06/13 04:48:14;;;;;;;8.88;3.90;;;;;;;;;;1421248;41;20432;-84
2021/06/13 04:49:16;;;;;;;9.40;4.05;;;;;;;;;;1421968;41;20408;-84
2021/06/13 04:50:18;;;;;;;13.60;4.20;;;;;;;;;;1426520;41;20446;-83
2021/06/13 04:51:20;;;;;;;10.88;4.30;;;;;;;;;;1422990;41;20460;-84
2021/06/13 04:52:26;;;;;;;10.52;3.85;;;;;;;;;;1418357;41;20467;-84
2021/06/13 04:53:51;;;;;;;8.45;3.72;;;;;;;;;;1423248;41;20478;-84
2021/06/13 04:55:15;;;;;;;12.88;4.80;;;;;;;;;;1430676;41;20426;-85
2021/06/13 04:56:28;;;;;;;10.50;3.88;;;;;;;;;;1428620;41;20422;-83
2021/06/13 04:57:37;;;;;;;12.25;4.10;;;;;;;;;;1433903;41;20752;-83
2021/06/13 04:58:39;;;;;;;10.73;3.90;;;;;;;;;;1429236;41;20430;-84
2021/06/13 04:59:40;;;;;;;10.95;3.75;;;;;;;;;;1426222;41;20420;-83
2021/06/13 05:00:42;;;;;;;12.30;3.95;;;;;;;;;;1430535;41;20615;-84
2021/06/13 05:01:44;;;;;;;11.02;4.53;;;;;;;;;;1428105;41;20783;-84
2021/06/13 05:02:47;;;;;;;10.90;4.90;;;;;;;;;;1430258;41;20439;-84
2021/06/13 05:03:49;;;;;;;7.80;4.03;;;;;;;;;;1430290;41;20493;-84
2021/06/13 05:04:54;;;;;;;13.88;4.63;;;;;;;;;;1421900;41;20449;-84
2021/06/13 05:05:56;;;;;;;10.27;3.72;;;;;;;;;;1423097;41;20446;-84
2021/06/13 05:07:03;;;;;;;10.77;4.22;;;;;;;;;;1420658;41;20595;-84
2021/06/13 05:08:05;;;;;;;8.63;4.20;;;;;;;;;;1426680;41;21074;-84
2021/06/13 05:09:07;;;;;;;12.18;3.47;;;;;;;;;;1434218;41;20774;-84
2021/06/13 05:10:09;;;;;;;10.65;3.92;;;;;;;;;;1430274;41;20434;-84
2021/06/13 05:11:12;;;;;;;11.45;4.13;;;;;;;;;;1433768;41;20420;-84
2021/06/13 05:12:13;;;;;;;7.55;3.53;;;;;;;;;;1434068;41;20444;-84
2021/06/13 05:13:17;;;;;;;8.90;3.55;;;;;;;;;;1426537;41;20436;-84
2021/06/13 05:14:18;;;;;;;13.90;4.13;;;;;;;;;;1427227;41;20416;-85
2021/06/13 05:15:21;;;;;;;12.98;4.25;;;;;;;;;;1427110;41;20436;-84
2021/06/13 05:16:23;;;;;;;9.65;3.55;;;;;;;;;;1427535;41;20469;-84
2021/06/13 05:17:25;;;;;;;7.32;3.28;;;;;;;;;;1430327;41;20438;-85
2021/06/13 05:18:26;;;;;;;8.25;3.50;;;;;;;;;;1437991;41;20443;-85
2021/06/13 05:19:28;;;;;;;8.30;3.13;;;;;;;;;;1443314;41;20435;-84
2021/06/13 05:20:30;;;;;;;9.98;3.42;;;;;;;;;;1443219;41;20427;-85
2021/06/13 05:21:31;;;;;;;8.50;3.00;;;;;;;;;;1427549;41;20465;-84
2021/06/13 05:22:54;;;;;;;8.20;3.15;;;;;;;;;;1425803;41;20418;-84
2021/06/13 05:23:56;;;;;;;8.15;2.83;;;;;;;;;;1436393;41;20425;-84
2021/06/13 05:24:57;;;;;;;8.00;3.33;;;;;;;;;;1431954;41;20441;-85
2021/06/13 05:26:02;;;;;;;6.75;2.92;;;;;;;;;;1428457;41;20995;-85
2021/06/13 05:27:04;;;;;;;9.00;3.13;;;;;;;;;;1428860;41;20850;-84
2021/06/13 05:28:07;;;;;;;8.82;3.55;;;;;;;;;;1428605;41;20440;-85
2021/06/13 05:29:09;;;;;;;6.32;2.67;;;;;;;;;;1433167;41;20856;-85
2021/06/13 05:30:11;;;;;;;9.20;3.08;;;;;;;;;;1427247;41;20428;-84
2021/06/13 05:31:14;;;;;;;10.63;3.63;;;;;;;;;;1427583;41;20484;-85
2021/06/13 05:32:16;;;;;;;9.93;4.07;;;;;;;;;;1434953;41;20425;-85
2021/06/13 05:33:18;;;;;;;7.60;3.05;;;;;;;;;;1426991;41;20456;-85
2021/06/13 05:34:19;;;;;;;5.95;2.58;;;;;;;;;;1427154;41;20451;-86
2021/06/13 05:35:22;;;;;;;8.07;2.75;;;;;;;;;;1430797;41;20553;-84
2021/06/13 05:36:23;;;;;;;7.97;2.17;;;;;;;;;;1426978;41;20847;-84
2021/06/13 05:37:25;;;;;;;5.55;2.75;;;;;;;;;;1426763;41;20420;-84
2021/06/13 05:38:28;;;;;;;8.02;2.97;;;;;;;;;;1425619;41;20853;-84
2021/06/13 05:39:30;;;;;;;8.73;3.08;;;;;;;;;;1428544;41;21052;-85
2021/06/13 05:40:32;;;;;;;8.20;3.38;;;;;;;;;;1427891;41;20452;-84
2021/06/13 05:41:33;;;;;;;9.38;3.22;;;;;;;;;;1426069;41;20438;-84
2021/06/13 05:42:36;;;;;;;5.75;2.17;;;;;;;;;;1430100;41;20433;-84
2021/06/13 05:43:38;;;;;;;5.28;2.33;;;;;;;;;;1431118;41;20424;-83
2021/06/13 05:44:39;;;;;;;7.47;2.60;;;;;;;;;;1431698;41;20448;-83
2021/06/13 05:45:42;;;;;;;8.32;2.58;;;;;;;;;;1439577;41;20424;-83
2021/06/13 05:46:44;;;;;;;8.32;3.03;;;;;;;;;;1439330;41;20436;-84
2021/06/13 05:47:46;;;;;;;8.95;3.20;;;;;;;;;;1430696;41;20428;-84
2021/06/13 05:48:47;;;;;;;6.03;2.50;;;;;;;;;;1430549;41;20432;-84
2021/06/13 05:49:49;;;;;;;11.85;3.40;;;;;;;;;;1430217;41;20472;-84
2021/06/13 05:50:51;;;;;;;7.82;2.72;;;;;;;;;;1423907;41;20450;-84
2021/06/13 05:51:52;;;;;;;5.15;2.53;;;;;;;;;;1427453;41;20447;-84
2021/06/13 05:52:54;;;;;;;6.30;3.10;;;;;;;;;;1430067;41;20427;-84
2021/06/13 05:53:57;;;;;;;7.80;2.53;;;;;;;;;;1426135;41;20424;-84
2021/06/13 05:54:59;;;;;;;6.77;3.17;;;;;;;;;;1415549;41;20844;-84
2021/06/13 05:56:01;;;;;;;5.05;2.33;;;;;;;;;;1427147;41;20460;-84
2021/06/13 05:57:02;;;;;;;6.55;2.40;;;;;;;;;;1438286;41;20800;-83
2021/06/13 05:58:04;;;;;;;5.57;2.40;;;;;;;;;;1430786;41;20422;-84
2021/06/13 05:59:07;;;;;;;6.38;2.38;;;;;;;;;;1426306;41;20428;-84
2021/06/13 06:00:13;;;;;;;5.33;2.33;;;;;;;;;;1427477;41;20416;-84
2021/06/13 06:01:14;;;;;;;5.70;2.20;;;;;;;;;;1432420;41;20419;-84
2021/06/13 06:02:16;;;;;;;5.47;3.00;;;;;;;;;;1435353;41;20564;-84
2021/06/13 06:03:18;;;;;;;6.43;2.63;;;;;;;;;;1430926;41;20447;-85
2021/06/13 06:04:19;;;;;;;7.13;2.90;;;;;;;;;;1430826;41;20438;-84
2021/06/13 06:05:21;;;;;;;5.80;2.67;;;;;;;;;;1430805;41;20455;-84
2021/06/13 06:06:23;;;;;;;6.22;3.33;;;;;;;;;;1430896;41;20896;-85
2021/06/13 06:07:25;;;;;;;7.03;2.80;;;;;;;;;;1422658;41;20445;-84
2021/06/13 06:08:27;;;;;;;7.70;3.40;;;;;;;;;;1424037;41;20580;-85
2021/06/13 06:09:29;;;;;;;5.85;2.42;;;;;;;;;;1426917;41;20428;-85
2021/06/13 06:10:33;;;;;;;8.23;2.88;;;;;;;;;;1427398;41;20456;-85
2021/06/13 06:11:39;;;;;;;3.63;1.90;;;;;;;;;;1434723;41;20482;-85
2021/06/13 06:12:44;;;;;;;5.03;2.13;;;;;;;;;;1435187;41;20420;-84
2021/06/13 06:13:52;;;;;;;6.18;2.28;;;;;;;;;;1431884;41;20919;-83
2021/06/13 06:14:54;;;;;;;5.93;3.10;;;;;;;;;;1423899;41;20409;-85
2021/06/13 06:15:55;;;;;;;5.28;2.72;;;;;;;;;;1427809;41;20825;-85
2021/06/13 06:16:57;;;;;;;7.18;3.08;;;;;;;;;;1431536;41;20435;-85
2021/06/13 06:18:00;;;;;;;7.30;2.28;;;;;;;;;;1429605;41;20441;-84
2021/06/13 06:19:03;;;;;;;7.45;2.80;;;;;;;;;;1423251;41;20512;-84
2021/06/13 06:20:06;;;;;;;6.75;2.30;;;;;;;;;;1429822;41;20497;-85